createdAt,value
2023-05-04T00:00:26.494Z,48.44
2023-05-04T00:02:53.657Z,48.05
2023-05-04T00:05:20.958Z,48.50
2023-05-04T00:07:48.282Z,48.28
2023-05-04T00:10:15.356Z,47.96
2023-05-04T00:12:42.593Z,48.47
2023-05-04T00:15:09.813Z,48.10
2023-05-04T00:17:36.847Z,48.48
2023-05-04T00:20:04.539Z,48.63
2023-05-04T00:22:31.795Z,48.34
2023-05-04T00:24:58.884Z,48.47
2023-05-04T00:27:26.088Z,48.14
2023-05-04T00:29:52.981Z,48.52
2023-05-04T00:32:19.969Z,48.28
2023-05-04T00:34:46.928Z,48.41
2023-05-04T00:37:14.030Z,48.20
2023-05-04T00:39:41.453Z,48.73
2023-05-04T00:42:08.406Z,48.27
2023-05-04T00:44:35.499Z,48.41
2023-05-04T00:47:03.885Z,48.71
2023-05-04T00:49:30.976Z,48.89
2023-05-04T00:51:58.737Z,48.67
2023-05-04T00:54:26.243Z,48.56
2023-05-04T00:56:53.738Z,48.48
2023-05-04T00:59:20.812Z,48.38
2023-05-04T01:01:48.090Z,48.21
2023-05-04T01:04:16.146Z,48.46
2023-05-04T01:07:27.044Z,48.25
2023-05-04T01:10:27.757Z,48.34
2023-05-04T01:13:04.440Z,48.49
2023-05-04T01:15:32.641Z,48.75
2023-05-04T01:17:59.595Z,48.24
2023-05-04T01:20:28.020Z,48.35
2023-05-04T01:22:56.480Z,48.48
2023-05-04T01:25:46.278Z,48.37
2023-05-04T01:28:26.716Z,48.48
2023-05-04T01:30:59.415Z,48.67
2023-05-04T01:33:28.815Z,48.68
2023-05-04T01:35:56.150Z,48.35
2023-05-04T01:38:25.842Z,48.72
2023-05-04T01:40:52.723Z,48.62
2023-05-04T01:43:20.057Z,49.01
2023-05-04T01:45:47.072Z,48.52
2023-05-04T01:48:14.125Z,48.96
2023-05-04T01:50:41.279Z,47.93
2023-05-04T01:53:08.856Z,47.75
2023-05-04T01:55:35.944Z,48.09
2023-05-04T01:58:03.326Z,48.04
2023-05-04T02:00:30.699Z,47.74
2023-05-04T02:03:00.865Z,48.11
2023-05-04T02:05:28.214Z,48.22
2023-05-04T02:07:55.461Z,48.43
2023-05-04T02:10:23.515Z,48.08
2023-05-04T02:12:50.563Z,48.56
2023-05-04T02:15:17.927Z,48.45
2023-05-04T02:17:45.265Z,48.39
2023-05-04T02:20:13.120Z,48.39
2023-05-04T02:22:42.673Z,48.60
2023-05-04T02:25:09.942Z,48.56
2023-05-04T02:27:37.296Z,48.71
2023-05-04T02:30:05.703Z,48.85
2023-05-04T02:32:33.059Z,48.62
2023-05-04T02:35:00.047Z,49.28
2023-05-04T02:37:28.769Z,48.53
2023-05-04T02:39:55.802Z,48.77
2023-05-04T02:42:23.418Z,49.25
2023-05-04T02:44:50.586Z,48.73
2023-05-04T02:47:17.535Z,48.65
2023-05-04T02:49:44.607Z,48.64
2023-05-04T02:52:11.690Z,49.13
2023-05-04T02:54:39.381Z,49.17
2023-05-04T02:57:07.060Z,48.75
2023-05-04T02:59:34.533Z,49.27
2023-05-04T03:02:01.568Z,49.23
2023-05-04T03:04:28.688Z,49.23
2023-05-04T03:06:55.883Z,48.83
2023-05-04T03:09:22.829Z,49.26
2023-05-04T03:11:49.784Z,49.21
2023-05-04T03:14:17.014Z,49.14
2023-05-04T03:16:45.665Z,48.88
2023-05-04T03:19:12.816Z,48.86
2023-05-04T03:21:39.889Z,48.90
2023-05-04T03:24:07.115Z,49.31
2023-05-04T03:26:34.181Z,48.95
2023-05-04T03:29:01.250Z,49.29
2023-05-04T03:31:28.537Z,49.35
2023-05-04T03:33:56.376Z,49.26
2023-05-04T03:36:23.493Z,49.58
2023-05-04T03:38:51.624Z,49.00
2023-05-04T03:41:19.747Z,49.00
2023-05-04T03:43:46.837Z,49.29
2023-05-04T03:46:13.887Z,49.23
2023-05-04T03:48:42.029Z,49.05
2023-05-04T03:51:12.918Z,49.09
2023-05-04T03:53:43.424Z,49.34
2023-05-04T03:56:13.094Z,49.56
2023-05-04T03:58:41.234Z,49.30
2023-05-04T04:01:08.328Z,48.95
2023-05-04T04:03:36.550Z,49.22
2023-05-04T04:06:03.929Z,49.44
2023-05-04T04:08:31.464Z,49.10
2023-05-04T04:10:58.947Z,49.14
2023-05-04T04:13:26.102Z,49.46
2023-05-04T04:15:53.167Z,49.23
2023-05-04T04:18:20.407Z,49.51
2023-05-04T04:20:47.434Z,49.61
2023-05-04T04:23:14.455Z,49.12
2023-05-04T04:25:43.036Z,49.69
2023-05-04T04:28:12.453Z,49.46
2023-05-04T04:30:39.504Z,49.50
2023-05-04T04:33:06.713Z,49.78
2023-05-04T04:35:33.993Z,49.30
2023-05-04T04:38:03.544Z,49.32
2023-05-04T04:40:31.108Z,49.75
2023-05-04T04:42:58.234Z,49.34
2023-05-04T04:45:25.295Z,49.68
2023-05-04T04:47:52.233Z,49.42
2023-05-04T04:50:19.466Z,49.47
2023-05-04T04:52:46.827Z,50.01
2023-05-04T04:55:15.638Z,49.48
2023-05-04T04:57:42.735Z,49.84
2023-05-04T05:00:10.607Z,49.89
2023-05-04T05:02:37.998Z,49.52
2023-05-04T05:05:05.937Z,49.52
2023-05-04T05:07:33.070Z,49.79
2023-05-04T05:10:00.228Z,49.39
2023-05-04T05:12:27.358Z,50.10
2023-05-04T05:14:55.136Z,49.95
2023-05-04T05:17:22.338Z,49.51
2023-05-04T05:19:50.020Z,49.86
2023-05-04T05:22:17.140Z,49.42
2023-05-04T05:24:44.412Z,49.83
2023-05-04T05:27:11.590Z,49.73
2023-05-04T05:29:39.041Z,49.89
2023-05-04T05:32:06.632Z,49.74
2023-05-04T05:34:33.534Z,49.70
2023-05-04T05:37:00.758Z,50.21
2023-05-04T05:39:28.790Z,49.85
2023-05-04T05:41:58.228Z,50.01
2023-05-04T05:44:25.178Z,49.55
2023-05-04T05:46:52.232Z,50.08
2023-05-04T05:49:19.456Z,49.48
2023-05-04T05:51:47.011Z,49.90
2023-05-04T05:54:15.280Z,49.60
2023-05-04T05:56:42.243Z,50.02
2023-05-04T05:59:09.161Z,49.78
2023-05-04T06:01:36.275Z,50.02
2023-05-04T06:04:03.551Z,49.74
2023-05-04T06:06:30.670Z,49.44
2023-05-04T06:08:57.958Z,50.16
2023-05-04T06:11:24.907Z,49.94
2023-05-04T06:13:51.913Z,49.85
2023-05-04T06:16:19.281Z,49.34
2023-05-04T06:18:46.205Z,49.92
2023-05-04T06:21:13.314Z,49.82
2023-05-04T06:23:41.350Z,49.73
2023-05-04T06:26:08.349Z,49.48
2023-05-04T06:28:35.736Z,49.32
2023-05-04T06:31:03.613Z,49.86
2023-05-04T06:33:30.764Z,49.28
2023-05-04T06:35:58.687Z,49.72
2023-05-04T06:38:25.865Z,49.60
2023-05-04T06:40:53.043Z,49.72
2023-05-04T06:43:20.028Z,49.58
2023-05-04T06:45:47.106Z,49.80
2023-05-04T06:48:14.086Z,49.73
2023-05-04T06:50:41.157Z,49.63
2023-05-04T06:53:10.726Z,49.23
2023-05-04T06:55:38.531Z,49.18
2023-05-04T06:58:05.675Z,49.29
2023-05-04T07:00:32.937Z,49.38
2023-05-04T07:03:00.241Z,49.15
2023-05-04T07:05:28.561Z,49.39
2023-05-04T07:07:55.762Z,49.52
2023-05-04T07:10:22.995Z,49.02
2023-05-04T07:12:50.107Z,49.43
2023-05-04T07:15:17.333Z,49.07
2023-05-04T07:17:44.384Z,49.08
2023-05-04T07:20:12.653Z,49.08
2023-05-04T07:22:39.826Z,49.05
2023-05-04T07:25:07.711Z,49.08
2023-05-04T07:27:35.388Z,49.06
2023-05-04T07:30:03.668Z,48.91
2023-05-04T07:32:30.869Z,48.90
2023-05-04T07:34:57.989Z,48.76
2023-05-04T07:37:25.017Z,49.08
2023-05-04T07:39:51.961Z,49.13
2023-05-04T07:42:19.040Z,48.85
2023-05-04T07:44:46.177Z,48.84
2023-05-04T07:47:13.151Z,48.58
2023-05-04T07:49:40.142Z,48.71
2023-05-04T07:52:07.125Z,48.58
2023-05-04T07:54:34.133Z,48.97
2023-05-04T07:57:04.553Z,48.54
2023-05-04T07:59:32.185Z,48.62
2023-05-04T08:01:59.700Z,48.75
2023-05-04T08:04:26.830Z,48.90
2023-05-04T08:06:53.779Z,48.26
2023-05-04T08:09:20.798Z,48.64
2023-05-04T08:11:48.537Z,48.49
2023-05-04T08:14:15.660Z,49.00
2023-05-04T08:16:42.814Z,48.70
2023-05-04T08:19:10.037Z,48.29
2023-05-04T08:21:37.052Z,48.38
2023-05-04T08:24:04.274Z,48.49
2023-05-04T08:26:32.624Z,48.48
2023-05-04T08:29:07.716Z,48.03
2023-05-04T08:31:35.773Z,48.56
2023-05-04T08:34:03.864Z,48.57
2023-05-04T08:36:30.868Z,48.53
2023-05-04T08:38:58.118Z,48.13
2023-05-04T08:41:25.088Z,48.33
2023-05-04T08:43:52.499Z,48.22
2023-05-04T08:46:19.698Z,48.46
2023-05-04T08:48:47.188Z,48.55
2023-05-04T08:51:15.174Z,48.42
2023-05-04T08:53:47.739Z,48.06
2023-05-04T08:56:16.364Z,48.22
2023-05-04T08:58:51.971Z,48.04
2023-05-04T09:01:20.724Z,48.25
2023-05-04T09:03:49.243Z,48.18
2023-05-04T09:06:16.880Z,48.04
2023-05-04T09:08:44.025Z,47.99
2023-05-04T09:11:11.060Z,48.21
2023-05-04T09:13:38.639Z,48.35
2023-05-04T09:16:07.600Z,48.22
2023-05-04T09:18:40.004Z,48.17
2023-05-04T09:21:07.917Z,48.01
2023-05-04T09:23:49.566Z,48.40
2023-05-04T09:26:33.389Z,48.03
2023-05-04T09:29:14.467Z,48.11
2023-05-04T09:31:47.210Z,47.85
2023-05-04T09:34:15.132Z,47.85
2023-05-04T09:36:42.271Z,48.31
2023-05-04T09:39:13.823Z,47.76
2023-05-04T09:41:42.053Z,48.09
2023-05-04T09:44:21.221Z,47.95
2023-05-04T09:46:58.921Z,47.77
2023-05-04T09:49:37.732Z,48.14
2023-05-04T09:52:06.967Z,48.19
2023-05-04T09:54:36.265Z,48.03
2023-05-04T09:57:15.605Z,48.29
2023-05-04T09:59:43.471Z,47.78
2023-05-04T10:02:21.693Z,47.91
2023-05-04T10:04:52.027Z,47.95
2023-05-04T10:07:21.177Z,47.81
2023-05-04T10:09:49.201Z,47.81
2023-05-04T10:12:16.295Z,47.97
2023-05-04T10:14:47.251Z,48.21
2023-05-04T10:18:14.702Z,48.32
2023-05-04T10:21:24.631Z,48.23
2023-05-04T10:24:11.311Z,47.83
2023-05-04T10:26:55.479Z,47.65
2023-05-04T10:29:29.101Z,47.46
2023-05-04T10:31:56.958Z,47.66
2023-05-04T10:34:33.364Z,47.48
2023-05-04T10:37:03.093Z,47.48
2023-05-04T10:39:32.761Z,47.82
2023-05-04T10:42:01.628Z,47.55
2023-05-04T10:44:31.685Z,48.06
2023-05-04T10:47:07.676Z,47.62
2023-05-04T10:49:35.990Z,47.87
2023-05-04T10:52:11.984Z,47.44
2023-05-04T10:54:41.186Z,47.72
2023-05-04T10:57:14.712Z,47.89
2023-05-04T10:59:42.042Z,47.50
2023-05-04T11:02:09.179Z,47.37
2023-05-04T11:04:37.930Z,47.37
2023-05-04T11:07:08.401Z,47.31
2023-05-04T11:09:44.381Z,47.64
2023-05-04T11:12:15.144Z,47.41
2023-05-04T11:14:43.354Z,47.18
2023-05-04T11:17:27.426Z,47.59
2023-05-04T11:19:56.327Z,47.15
2023-05-04T11:22:23.747Z,47.15
2023-05-04T11:24:52.842Z,47.17
2023-05-04T11:27:29.722Z,47.50
2023-05-04T11:30:04.685Z,47.01
2023-05-04T11:32:39.722Z,47.17
2023-05-04T11:35:16.392Z,47.12
2023-05-04T11:37:46.446Z,46.76
2023-05-04T11:40:19.844Z,46.74
2023-05-04T11:42:48.389Z,46.77
2023-05-04T11:45:22.714Z,46.73
2023-05-04T11:47:52.227Z,46.63
2023-05-04T11:50:21.190Z,47.21
2023-05-04T11:52:49.023Z,47.04
2023-05-04T11:55:30.484Z,46.72
2023-05-04T11:58:00.060Z,47.00
2023-05-04T12:00:48.993Z,46.82
2023-05-04T12:03:24.530Z,46.58
2023-05-04T12:05:57.365Z,46.46
2023-05-04T12:08:34.533Z,46.44
2023-05-04T12:11:15.126Z,46.41
2023-05-04T12:13:45.055Z,46.31
2023-05-04T12:16:21.409Z,46.23
2023-05-04T12:18:49.404Z,46.62
2023-05-04T12:21:19.694Z,46.53
2023-05-04T12:23:47.569Z,46.42
2023-05-04T12:26:18.152Z,46.45
2023-05-04T12:28:47.256Z,46.22
2023-05-04T12:31:14.519Z,46.42
2023-05-04T12:33:41.582Z,46.04
2023-05-04T12:36:10.157Z,46.03
2023-05-04T12:38:40.512Z,46.16
2023-05-04T12:41:10.930Z,45.79
2023-05-04T12:43:38.267Z,45.84
2023-05-04T12:46:05.410Z,45.70
2023-05-04T12:48:33.054Z,46.20
2023-05-04T12:51:01.847Z,45.65
2023-05-04T12:53:31.706Z,46.13
2023-05-04T12:56:00.392Z,46.17
2023-05-04T12:58:27.991Z,46.06
2023-05-04T13:00:56.156Z,46.29
2023-05-04T13:03:23.576Z,45.91
2023-05-04T13:05:51.063Z,45.75
2023-05-04T13:08:19.681Z,45.75
2023-05-04T13:10:47.271Z,45.54
2023-05-04T13:13:17.174Z,45.70
2023-05-04T13:15:45.160Z,45.39
2023-05-04T13:18:12.957Z,45.49
2023-05-04T13:20:40.927Z,45.22
2023-05-04T13:23:08.153Z,45.25
2023-05-04T13:28:02.168Z,45.28
2023-05-04T13:30:29.957Z,45.02
2023-05-04T13:32:57.200Z,45.06
2023-05-04T13:35:24.540Z,44.76
2023-05-04T13:37:51.857Z,44.54
2023-05-04T13:40:18.925Z,44.50
2023-05-04T13:42:46.268Z,43.95
2023-05-04T13:45:13.409Z,44.15
2023-05-04T13:47:40.678Z,44.18
2023-05-04T13:50:08.305Z,43.95
2023-05-04T13:52:36.278Z,44.00
2023-05-04T13:55:04.698Z,43.74
2023-05-04T13:57:32.119Z,44.08
2023-05-04T14:00:06.630Z,43.81
2023-05-04T14:02:41.310Z,43.37
2023-05-04T14:05:09.135Z,43.20
2023-05-04T14:07:36.575Z,43.19
2023-05-04T14:10:04.004Z,43.14
2023-05-04T14:12:30.978Z,43.00
2023-05-04T14:14:59.054Z,43.29
2023-05-04T14:17:26.451Z,42.87
2023-05-04T14:19:53.519Z,42.54
2023-05-04T14:22:20.813Z,42.69
2023-05-04T14:24:49.404Z,42.14
2023-05-04T14:27:17.448Z,42.67
2023-05-04T14:29:46.538Z,42.81
2023-05-04T14:32:15.036Z,42.24
2023-05-04T14:34:42.259Z,42.57
2023-05-04T14:37:10.153Z,41.91
2023-05-04T14:39:37.072Z,41.96
2023-05-04T14:42:04.079Z,42.02
2023-05-04T14:44:31.230Z,42.15
2023-05-04T14:46:58.328Z,41.85
2023-05-04T14:49:36.712Z,41.43
2023-05-04T14:52:05.003Z,42.03
2023-05-04T14:54:32.510Z,41.52
2023-05-04T14:56:59.794Z,41.80
2023-05-04T14:59:26.797Z,41.54
2023-05-04T15:01:54.901Z,41.35
2023-05-04T15:04:23.001Z,41.34
2023-05-04T15:06:50.457Z,41.24
2023-05-04T15:09:18.350Z,41.04
2023-05-04T15:11:46.224Z,40.77
2023-05-04T15:14:13.271Z,40.87
2023-05-04T15:16:41.385Z,41.06
2023-05-04T15:19:08.817Z,40.85
2023-05-04T15:21:35.892Z,41.15
2023-05-04T15:24:02.804Z,40.75
2023-05-04T15:26:30.925Z,40.86
2023-05-04T15:28:58.540Z,40.46
2023-05-04T15:31:25.847Z,41.07
2023-05-04T15:33:53.759Z,40.65
2023-05-04T15:36:20.761Z,40.57
2023-05-04T15:38:47.654Z,40.84
2023-05-04T15:41:14.542Z,40.62
2023-05-04T15:43:41.451Z,40.46
2023-05-04T15:46:08.795Z,40.28
2023-05-04T15:48:35.923Z,40.58
2023-05-04T15:51:02.968Z,40.43
2023-05-04T15:53:29.938Z,40.10
2023-05-04T15:55:56.966Z,40.20
2023-05-04T15:58:24.031Z,40.19
2023-05-04T16:00:51.059Z,40.25
2023-05-04T16:03:18.146Z,40.07
2023-05-04T16:05:45.374Z,40.15
2023-05-04T16:08:12.519Z,39.94
2023-05-04T16:10:39.529Z,39.74
2023-05-04T16:13:07.269Z,39.97
2023-05-04T16:15:35.356Z,40.00
2023-05-04T16:18:02.416Z,39.90
2023-05-04T16:20:29.885Z,39.77
2023-05-04T16:22:56.963Z,39.82
2023-05-04T16:25:24.032Z,39.97
2023-05-04T16:27:52.213Z,39.95
2023-05-04T16:30:20.079Z,39.88
2023-05-04T16:32:47.162Z,39.94
2023-05-04T16:35:14.213Z,39.85
2023-05-04T16:37:41.201Z,39.69
2023-05-04T16:40:15.596Z,40.02
2023-05-04T16:42:43.468Z,39.60
2023-05-04T16:45:12.348Z,39.70
2023-05-04T16:47:43.777Z,39.55
2023-05-04T16:50:12.219Z,39.93
2023-05-04T16:52:40.343Z,39.58
2023-05-04T16:55:11.528Z,39.72
2023-05-04T16:57:39.508Z,39.54
2023-05-04T17:00:07.836Z,39.76
2023-05-04T17:02:35.935Z,39.63
2023-05-04T17:05:06.649Z,39.75
2023-05-04T17:07:34.252Z,39.69
2023-05-04T17:10:01.512Z,39.70
2023-05-04T17:12:29.165Z,39.46
2023-05-04T17:14:56.633Z,40.00
2023-05-04T17:17:23.713Z,39.61
2023-05-04T17:19:50.797Z,39.96
2023-05-04T17:22:18.021Z,39.55
2023-05-04T17:24:45.802Z,39.73
2023-05-04T17:27:13.201Z,39.57
2023-05-04T17:29:41.063Z,39.47
2023-05-04T17:32:08.601Z,39.50
2023-05-04T17:34:36.339Z,39.72
2023-05-04T17:37:03.419Z,39.55
2023-05-04T17:39:31.616Z,39.65
2023-05-04T17:41:59.076Z,39.58
2023-05-04T17:44:28.127Z,39.82
2023-05-04T17:46:55.762Z,39.48
2023-05-04T17:49:22.955Z,39.63
2023-05-04T17:51:50.016Z,39.75
2023-05-04T17:54:17.345Z,39.64
2023-05-04T17:56:44.619Z,39.42
2023-05-04T17:59:11.851Z,39.73
2023-05-04T18:01:39.008Z,39.83
2023-05-04T18:04:06.069Z,39.76
2023-05-04T18:06:33.565Z,39.78
2023-05-04T18:09:01.139Z,39.81
2023-05-04T18:11:28.345Z,39.70
2023-05-04T18:13:56.454Z,39.61
2023-05-04T18:16:24.825Z,39.94
2023-05-04T18:18:52.700Z,39.47
2023-05-04T18:21:19.802Z,39.75
2023-05-04T18:23:47.018Z,39.31
2023-05-04T18:26:22.364Z,39.30
2023-05-04T18:28:49.915Z,39.56
2023-05-04T18:31:17.433Z,39.55
2023-05-04T18:33:44.883Z,40.12
2023-05-04T18:36:12.085Z,39.95
2023-05-04T18:38:39.346Z,40.64
2023-05-04T18:41:06.342Z,40.67
2023-05-04T18:43:33.512Z,40.68
2023-05-04T18:46:07.569Z,40.77
2023-05-04T18:48:34.823Z,40.63
2023-05-04T18:51:02.495Z,40.31
2023-05-04T18:53:29.640Z,40.87
2023-05-04T18:56:04.398Z,40.45
2023-05-04T18:58:32.071Z,40.86
2023-05-04T19:00:59.538Z,40.62
2023-05-04T19:03:26.807Z,41.16
2023-05-04T19:05:54.542Z,40.49
2023-05-04T19:08:21.878Z,41.21
2023-05-04T19:10:50.232Z,41.35
2023-05-04T19:13:17.326Z,41.41
2023-05-04T19:15:44.535Z,41.23
2023-05-04T19:18:12.027Z,41.03
2023-05-04T19:20:39.874Z,41.43
2023-05-04T19:23:07.179Z,41.65
2023-05-04T19:25:35.425Z,41.62
2023-05-04T19:28:08.497Z,41.77
2023-05-04T19:30:39.635Z,41.27
2023-05-04T19:33:08.314Z,41.89
2023-05-04T19:35:36.245Z,41.94
2023-05-04T19:38:06.127Z,41.82
2023-05-04T19:40:34.495Z,41.78
2023-05-04T19:43:01.589Z,41.50
2023-05-04T19:45:28.791Z,41.91
2023-05-04T19:47:56.445Z,41.84
2023-05-04T19:50:23.999Z,42.07
2023-05-04T19:52:51.825Z,41.75
2023-05-04T19:55:18.919Z,41.93
2023-05-04T19:57:47.838Z,42.14
2023-05-04T20:00:17.108Z,42.36
2023-05-04T20:02:44.147Z,41.97
2023-05-04T20:05:11.684Z,41.93
2023-05-04T20:07:39.169Z,41.92
2023-05-04T20:10:06.993Z,42.18
2023-05-04T20:12:34.581Z,42.05
2023-05-04T20:15:01.795Z,42.06
2023-05-04T20:17:29.088Z,42.81
2023-05-04T20:19:56.221Z,42.57
2023-05-04T20:22:23.169Z,42.66
2023-05-04T20:24:50.363Z,42.84
2023-05-04T20:27:17.497Z,42.48
2023-05-04T20:29:45.469Z,42.49
2023-05-04T20:32:12.474Z,42.38
2023-05-04T20:34:40.005Z,42.81
2023-05-04T20:37:07.271Z,42.55
2023-05-04T20:39:34.451Z,42.31
2023-05-04T20:42:01.537Z,42.78
2023-05-04T20:44:28.483Z,43.00
2023-05-04T20:46:55.365Z,42.77
2023-05-04T20:49:22.374Z,42.82
2023-05-04T20:51:49.475Z,42.71
2023-05-04T20:54:17.085Z,43.00
2023-05-04T20:56:43.967Z,43.05
2023-05-04T20:59:10.971Z,43.22
2023-05-04T21:01:37.870Z,43.23
2023-05-04T21:04:05.005Z,43.53
2023-05-04T21:06:32.046Z,43.54
2023-05-04T21:08:59.063Z,43.53
2023-05-04T21:11:26.055Z,43.02
2023-05-04T21:13:53.707Z,43.01
2023-05-04T21:16:20.978Z,43.21
2023-05-04T21:18:48.449Z,43.52
2023-05-04T21:21:15.980Z,43.36
2023-05-04T21:23:42.907Z,43.37
2023-05-04T21:26:09.853Z,43.40
2023-05-04T21:28:36.936Z,43.75
2023-05-04T21:31:09.777Z,43.71
2023-05-04T21:33:36.739Z,43.46
2023-05-04T21:36:16.336Z,43.29
2023-05-04T21:38:43.602Z,43.79
2023-05-04T21:41:14.948Z,44.04
2023-05-04T21:43:42.689Z,43.77
2023-05-04T21:46:11.546Z,43.83
2023-05-04T21:48:38.906Z,44.09
2023-05-04T21:51:05.888Z,44.08
2023-05-04T21:53:35.897Z,43.93
2023-05-04T21:56:08.370Z,44.36
2023-05-04T21:58:43.174Z,44.19
2023-05-04T22:01:17.071Z,43.87
2023-05-04T22:03:44.793Z,44.10
2023-05-04T22:06:12.027Z,44.00
2023-05-04T22:08:39.222Z,44.10
2023-05-04T22:11:06.733Z,44.02
2023-05-04T22:13:33.661Z,44.05
2023-05-04T22:16:00.708Z,43.86
2023-05-04T22:18:27.651Z,44.16
2023-05-04T22:20:54.728Z,44.08
2023-05-04T22:23:21.761Z,43.32
2023-05-04T22:25:48.727Z,43.68
2023-05-04T22:28:16.134Z,43.57
2023-05-04T22:30:43.085Z,43.69
2023-05-04T22:33:10.150Z,43.93
2023-05-04T22:35:37.218Z,43.85
2023-05-04T22:38:05.028Z,44.33
2023-05-04T22:40:32.096Z,44.21
2023-05-04T22:42:59.289Z,43.92
2023-05-04T22:45:26.381Z,44.06
2023-05-04T22:47:53.376Z,44.35
2023-05-04T22:50:20.621Z,44.51
2023-05-04T22:52:47.607Z,44.11
2023-05-04T22:55:14.711Z,44.23
2023-05-04T22:57:41.640Z,44.06
2023-05-04T23:00:10.192Z,44.68
2023-05-04T23:02:37.447Z,44.28
2023-05-04T23:05:04.948Z,44.78
2023-05-04T23:07:32.242Z,44.67
2023-05-04T23:10:00.238Z,44.73
2023-05-04T23:12:28.340Z,44.70
2023-05-04T23:14:55.465Z,44.96
2023-05-04T23:17:22.479Z,44.98
2023-05-04T23:19:49.761Z,45.03
2023-05-04T23:22:16.735Z,44.52
2023-05-04T23:24:43.803Z,45.26
2023-05-04T23:27:11.451Z,44.92
2023-05-04T23:29:38.656Z,44.94
2023-05-04T23:32:06.381Z,45.11
2023-05-04T23:34:33.603Z,44.79
2023-05-04T23:37:00.723Z,44.50
2023-05-04T23:39:27.816Z,44.83
2023-05-04T23:41:54.697Z,44.29
2023-05-04T23:44:21.930Z,45.04
2023-05-04T23:46:48.853Z,45.26
2023-05-04T23:49:16.449Z,45.25
2023-05-04T23:51:43.550Z,45.16
2023-05-04T23:54:10.868Z,44.73
2023-05-04T23:56:37.986Z,44.73
2023-05-04T23:59:05.528Z,45.39
